Time;durP1;ratioP1;P1;durP2;ratioP2;P2;SDS_P1;SDS_P2;PMS_P1;PMS_P2;Temp;Humidity;BMP_temperature;BMP_pressure;BME280_temperature;BME280_humidity;BME280_pressure;Samples;Min_cycle;Max_cycle;Signal;HPM_P1;HPM_P2
2021/07/05 00:02:11;;;;;;;11.05;7.75;;;17.60;99.90;;;;;;6037116;23;20015;-88
2021/07/05 00:04:37;;;;;;;13.18;8.60;;;17.60;99.90;;;;;;6037179;23;20007;-89
2021/07/05 00:07:03;;;;;;;11.20;8.88;;;17.70;99.90;;;;;;6036985;23;20038;-89
2021/07/05 00:09:29;;;;;;;10.80;8.48;;;17.70;99.90;;;;;;6036478;23;20420;-88
2021/07/05 00:11:54;;;;;;;10.93;8.23;;;17.70;99.90;;;;;;6037599;23;20090;-89
2021/07/05 00:14:20;;;;;;;11.23;8.43;;;17.80;99.90;;;;;;6037407;23;20092;-89
2021/07/05 00:16:46;;;;;;;12.32;7.65;;;17.80;99.90;;;;;;6036829;23;20007;-89
2021/07/05 00:19:12;;;;;;;14.60;9.35;;;17.80;99.90;;;;;;6036604;23;20007;-89
2021/07/05 00:21:38;;;;;;;10.88;9.73;;;17.80;99.90;;;;;;6037588;23;20003;-88
2021/07/05 00:24:04;;;;;;;13.00;9.23;;;17.80;99.90;;;;;;6036890;23;20050;-89
2021/07/05 00:26:30;;;;;;;12.85;9.27;;;17.90;99.90;;;;;;6037623;23;20027;-88
2021/07/05 00:28:56;;;;;;;14.93;9.05;;;17.80;99.90;;;;;;6036341;23;20011;-89
2021/07/05 00:31:21;;;;;;;13.45;9.70;;;17.80;99.90;;;;;;6037297;23;20003;-88
2021/07/05 00:33:47;;;;;;;12.68;9.55;;;17.80;99.90;;;;;;6037064;23;20026;-88
2021/07/05 00:36:13;;;;;;;17.15;9.15;;;17.80;99.90;;;;;;6036640;23;20074;-88
2021/07/05 00:38:39;;;;;;;12.90;9.73;;;17.80;99.90;;;;;;6037624;23;20019;-88
2021/07/05 00:41:05;;;;;;;12.00;9.05;;;17.80;99.90;;;;;;6037541;23;20046;-89
2021/07/05 00:43:31;;;;;;;11.82;9.35;;;17.80;99.90;;;;;;6037676;23;20019;-89
2021/07/05 00:45:57;;;;;;;13.02;9.13;;;17.80;99.90;;;;;;6037184;23;20003;-88
2021/07/05 00:48:23;;;;;;;13.18;9.10;;;17.80;99.90;;;;;;6037165;23;20011;-89
2021/07/05 00:50:49;;;;;;;15.55;10.10;;;17.80;99.90;;;;;;6037354;23;20429;-88
2021/07/05 00:53:15;;;;;;;11.05;8.73;;;17.80;99.90;;;;;;6038037;23;20004;-88
2021/07/05 00:55:42;;;;;;;9.48;8.00;;;17.90;99.90;;;;;;6037050;23;20440;-89
2021/07/05 00:58:08;;;;;;;9.90;8.52;;;17.90;99.90;;;;;;6012533;23;20011;-88
2021/07/05 01:00:34;;;;;;;9.48;8.55;;;17.90;99.90;;;;;;6037008;23;20003;-88
2021/07/05 01:03:00;;;;;;;8.48;7.53;;;17.90;99.90;;;;;;6036841;23;20067;-90
2021/07/05 01:05:26;;;;;;;12.27;8.40;;;17.90;99.90;;;;;;6037949;23;20083;-88
2021/07/05 01:07:53;;;;;;;9.52;8.13;;;17.90;99.90;;;;;;6037966;23;20027;-89
2021/07/05 01:10:20;;;;;;;20.45;9.18;;;17.90;99.90;;;;;;6036831;23;19999;-90
2021/07/05 01:12:47;;;;;;;14.30;8.77;;;17.90;99.90;;;;;;6037608;23;20011;-90
2021/07/05 01:15:16;;;;;;;12.68;8.52;;;17.90;99.90;;;;;;6038010;23;19995;-90
2021/07/05 01:17:43;;;;;;;15.32;8.43;;;17.90;99.90;;;;;;6037440;23;20011;-90
2021/07/05 01:20:11;;;;;;;13.88;8.65;;;18.00;99.90;;;;;;6037623;23;20007;-89
2021/07/05 01:22:37;;;;;;;9.38;8.38;;;17.90;99.90;;;;;;6038806;23;20082;-90
2021/07/05 01:25:05;;;;;;;12.95;9.02;;;18.00;99.90;;;;;;6039575;23;20042;-89
2021/07/05 01:27:31;;;;;;;14.88;9.75;;;18.00;99.90;;;;;;6039042;23;20329;-89
2021/07/05 01:29:57;;;;;;;13.60;8.60;;;18.00;99.90;;;;;;6039455;23;20010;-90
2021/07/05 01:32:22;;;;;;;14.85;10.25;;;18.10;99.90;;;;;;6039244;23;20047;-89
2021/07/05 01:34:48;;;;;;;19.27;11.18;;;18.10;99.90;;;;;;6038538;23;20043;-90
2021/07/05 01:37:14;;;;;;;14.30;11.30;;;18.10;99.90;;;;;;6038514;23;20082;-88
2021/07/05 01:39:40;;;;;;;18.60;13.38;;;18.00;99.90;;;;;;6039162;23;20055;-88
2021/07/05 01:42:07;;;;;;;16.20;12.02;;;18.00;99.90;;;;;;6039192;23;20011;-90
2021/07/05 01:44:33;;;;;;;17.90;11.75;;;18.00;99.90;;;;;;6038875;23;20534;-89
2021/07/05 01:47:00;;;;;;;16.75;11.68;;;18.00;99.90;;;;;;6039361;23;20004;-89
2021/07/05 01:49:26;;;;;;;14.30;11.70;;;18.00;99.90;;;;;;6039078;23;20031;-89
2021/07/05 01:51:51;;;;;;;15.30;11.50;;;18.00;99.90;;;;;;6013612;23;20386;-91
2021/07/05 01:54:18;;;;;;;12.15;10.85;;;18.10;99.90;;;;;;6039291;23;20198;-89
2021/07/05 01:56:44;;;;;;;14.73;11.25;;;18.10;99.90;;;;;;6039287;23;20010;-91
2021/07/05 01:59:11;;;;;;;22.83;11.85;;;18.10;99.90;;;;;;6038450;23;20020;-89
2021/07/05 02:01:37;;;;;;;16.58;11.18;;;18.10;99.90;;;;;;6038293;23;20007;-89
2021/07/05 02:04:04;;;;;;;15.93;10.90;;;18.10;99.90;;;;;;6038584;23;20011;-89
2021/07/05 02:06:30;;;;;;;13.90;10.75;;;18.10;99.90;;;;;;6038497;23;20023;-88
2021/07/05 02:08:56;;;;;;;15.27;10.90;;;18.10;99.90;;;;;;6038881;23;20030;-90
2021/07/05 02:11:22;;;;;;;15.35;10.20;;;18.10;99.90;;;;;;6039017;23;20006;-91
2021/07/05 02:13:48;;;;;;;14.65;11.68;;;18.10;99.90;;;;;;6038407;23;20389;-89
2021/07/05 02:16:14;;;;;;;15.63;10.85;;;18.10;99.90;;;;;;6039016;23;20066;-89
2021/07/05 02:18:40;;;;;;;17.75;10.35;;;18.20;99.90;;;;;;6039269;23;20332;-90
2021/07/05 02:21:07;;;;;;;18.65;11.43;;;18.20;99.90;;;;;;6038301;23;20031;-89
2021/07/05 02:23:34;;;;;;;14.15;10.73;;;18.20;99.90;;;;;;6038237;23;20456;-90
2021/07/05 02:26:01;;;;;;;27.45;12.88;;;18.30;99.90;;;;;;6038897;23;19999;-89
2021/07/05 02:28:30;;;;;;;22.20;12.25;;;18.20;99.90;;;;;;6037220;23;20015;-91
2021/07/05 02:30:57;;;;;;;19.65;11.18;;;18.30;99.90;;;;;;6037986;23;20330;-89
2021/07/05 02:33:26;;;;;;;19.95;11.90;;;18.20;99.90;;;;;;6038932;23;20011;-88
2021/07/05 02:35:53;;;;;;;23.63;12.48;;;18.30;99.90;;;;;;6039253;23;20360;-89
2021/07/05 02:38:20;;;;;;;22.55;11.88;;;18.30;99.90;;;;;;6038758;23;20147;-89
2021/07/05 02:40:48;;;;;;;19.45;12.10;;;18.30;99.90;;;;;;6038653;23;20011;-89
2021/07/05 02:43:15;;;;;;;23.88;12.57;;;18.40;99.90;;;;;;6038529;23;20034;-88
2021/07/05 02:45:42;;;;;;;27.65;12.73;;;18.40;99.90;;;;;;6038995;23;20082;-89
2021/07/05 02:48:12;;;;;;;21.77;12.55;;;18.40;99.90;;;;;;6038640;23;20031;-89
2021/07/05 02:50:40;;;;;;;20.17;12.60;;;18.40;99.90;;;;;;6038674;23;20003;-89
2021/07/05 02:53:08;;;;;;;21.30;12.95;;;18.40;99.90;;;;;;6038288;23;20003;-89
2021/07/05 02:55:34;;;;;;;19.75;12.13;;;18.40;99.90;;;;;;6038670;23;20011;-88
2021/07/05 02:58:00;;;;;;;20.10;12.07;;;18.50;99.90;;;;;;6037767;23;20016;-89
2021/07/05 03:00:31;;;;;;;25.75;12.18;;;18.50;99.90;;;;;;6038690;23;20007;-89
2021/07/05 03:02:57;;;;;;;19.38;11.75;;;18.50;99.90;;;;;;6038210;23;20029;-89
2021/07/05 03:05:25;;;;;;;18.63;13.15;;;18.50;99.90;;;;;;6038747;23;20445;-89
2021/07/05 03:07:51;;;;;;;35.40;16.40;;;18.50;99.90;;;;;;6038644;23;20014;-88
2021/07/05 03:10:20;;;;;;;25.45;15.65;;;18.50;99.90;;;;;;6037335;23;20052;-87
2021/07/05 03:12:46;;;;;;;25.88;18.67;;;18.50;99.90;;;;;;6037803;23;20082;-88
2021/07/05 03:15:13;;;;;;;23.65;15.77;;;18.50;99.90;;;;;;6013003;23;20043;-88
2021/07/05 03:17:40;;;;;;;21.40;15.45;;;18.50;99.90;;;;;;6038466;23;20015;-88
2021/07/05 03:20:09;;;;;;;26.20;16.85;;;18.60;99.90;;;;;;6038550;23;20262;-89
2021/07/05 03:22:35;;;;;;;24.92;18.02;;;18.60;99.90;;;;;;6038249;23;20393;-88
2021/07/05 03:25:07;;;;;;;38.72;20.05;;;18.60;99.90;;;;;;6037331;23;20003;-88
2021/07/05 03:27:33;;;;;;;33.03;19.45;;;18.60;99.90;;;;;;6010818;23;20094;-88
2021/07/05 03:29:58;;;;;;;25.88;19.95;;;18.60;99.90;;;;;;6038633;23;21022;-88
2021/07/05 03:32:24;;;;;;;27.42;18.88;;;18.70;99.90;;;;;;6037976;23;20373;-89
2021/07/05 03:34:51;;;;;;;37.53;20.40;;;18.70;99.90;;;;;;6038371;23;20099;-89
2021/07/05 03:37:17;;;;;;;25.92;15.45;;;18.70;99.90;;;;;;6037249;23;20035;-88
2021/07/05 03:39:43;;;;;;;24.23;15.73;;;18.70;99.90;;;;;;6038182;23;20344;-88
2021/07/05 03:42:08;;;;;;;27.23;16.85;;;18.70;99.90;;;;;;6038449;23;19999;-89
2021/07/05 03:44:34;;;;;;;27.02;15.70;;;18.70;99.90;;;;;;6038473;23;20007;-88
2021/07/05 03:47:00;;;;;;;23.17;14.98;;;18.70;99.90;;;;;;6038206;23;20006;-88
2021/07/05 03:49:25;;;;;;;29.65;14.93;;;18.70;99.90;;;;;;6037868;23;20011;-90
2021/07/05 03:51:51;;;;;;;33.97;16.58;;;18.70;99.90;;;;;;6038364;23;20436;-90
2021/07/05 03:54:17;;;;;;;30.67;18.08;;;18.70;99.90;;;;;;6038507;23;20008;-88
2021/07/05 03:56:43;;;;;;;35.45;19.25;;;18.80;99.90;;;;;;6038528;23;20094;-89
2021/07/05 03:59:09;;;;;;;31.92;19.52;;;18.80;99.90;;;;;;6038251;23;20094;-89
2021/07/05 04:01:35;;;;;;;27.63;19.00;;;18.80;99.90;;;;;;6038330;23;20023;-88
2021/07/05 04:04:01;;;;;;;32.38;19.73;;;18.80;99.90;;;;;;6037786;23;20003;-89
2021/07/05 04:06:27;;;;;;;37.75;21.45;;;18.90;99.90;;;;;;6038190;23;20340;-88
2021/07/05 04:08:55;;;;;;;28.73;19.30;;;18.90;99.90;;;;;;6038021;23;20003;-90
2021/07/05 04:11:21;;;;;;;32.60;21.08;;;18.90;99.90;;;;;;6038327;23;20011;-88
2021/07/05 04:13:46;;;;;;;28.77;18.85;;;18.90;99.90;;;;;;6037731;23;20120;-90
2021/07/05 04:16:12;;;;;;;30.17;20.98;;;19.00;99.90;;;;;;6038295;23;20008;-88
2021/07/05 04:18:38;;;;;;;32.53;19.85;;;19.00;99.90;;;;;;6037958;23;20019;-89
2021/07/05 04:21:03;;;;;;;27.23;19.83;;;19.10;99.90;;;;;;6037980;23;20361;-88
2021/07/05 04:23:29;;;;;;;25.58;19.00;;;19.10;99.90;;;;;;6038026;23;20684;-87
2021/07/05 04:25:55;;;;;;;32.03;19.77;;;19.10;99.90;;;;;;6037535;23;20063;-88
2021/07/05 04:28:21;;;;;;;28.95;19.35;;;19.20;99.90;;;;;;6012787;23;20011;-88
2021/07/05 04:30:47;;;;;;;28.25;19.05;;;19.20;99.90;;;;;;6037589;23;20507;-88
2021/07/05 04:33:12;;;;;;;31.23;20.15;;;19.20;99.90;;;;;;6037705;23;20027;-88
2021/07/05 04:35:38;;;;;;;27.42;20.40;;;19.20;99.90;;;;;;6012031;23;20082;-88
2021/07/05 04:38:05;;;;;;;28.45;19.80;;;19.30;99.90;;;;;;6036239;23;20019;-88
2021/07/05 04:40:35;;;;;;;33.13;20.45;;;19.30;99.90;;;;;;6036019;23;20086;-89
2021/07/05 04:43:01;;;;;;;28.70;20.98;;;19.30;99.90;;;;;;6037451;23;20013;-87
2021/07/05 04:45:28;;;;;;;25.58;20.00;;;19.30;99.90;;;;;;6037911;23;20006;-88
2021/07/05 04:48:00;;;;;;;29.10;20.40;;;19.40;99.90;;;;;;6038372;23;20082;-88
2021/07/05 04:50:26;;;;;;;24.15;20.85;;;19.40;99.90;;;;;;6037753;23;20429;-89
2021/07/05 04:52:51;;;;;;;25.98;21.33;;;19.40;99.90;;;;;;6037613;23;20010;-87
2021/07/05 04:55:19;;;;;;;28.23;23.83;;;19.40;99.90;;;;;;6037093;23;20004;-87
2021/07/05 04:57:47;;;;;;;27.67;22.90;;;19.50;99.90;;;;;;6036861;23;20015;-87
2021/07/05 05:00:18;;;;;;;27.77;24.10;;;19.50;99.90;;;;;;6036308;23;20010;-88
2021/07/05 05:02:44;;;;;;;31.48;25.30;;;19.60;99.90;;;;;;6036518;23;20008;-87
2021/07/05 05:05:10;;;;;;;27.85;23.90;;;19.80;99.90;;;;;;6037686;23;20027;-88
2021/07/05 05:07:36;;;;;;;30.23;23.85;;;19.80;99.90;;;;;;6037061;23;20428;-87
2021/07/05 05:10:07;;;;;;;29.60;24.27;;;20.00;99.90;;;;;;6012319;23;20030;-88
2021/07/05 05:12:33;;;;;;;28.88;23.58;;;20.10;99.90;;;;;;6037218;23;20051;-87
2021/07/05 05:14:59;;;;;;;27.70;22.33;;;20.30;99.90;;;;;;6036534;23;20015;-87
2021/07/05 05:17:26;;;;;;;24.77;20.85;;;20.30;99.90;;;;;;6037164;23;20007;-87
2021/07/05 05:19:52;;;;;;;25.05;21.02;;;20.30;99.90;;;;;;6038335;23;20014;-87
2021/07/05 05:22:17;;;;;;;24.23;20.38;;;20.30;99.90;;;;;;6037476;23;20397;-89
2021/07/05 05:24:43;;;;;;;20.40;18.08;;;20.40;99.90;;;;;;6037300;23;20007;-87
2021/07/05 05:27:09;;;;;;;21.02;18.85;;;20.40;99.90;;;;;;6037081;23;20074;-87
2021/07/05 05:29:35;;;;;;;20.38;18.33;;;20.50;99.90;;;;;;6012231;23;20007;-87
2021/07/05 05:32:01;;;;;;;21.02;17.52;;;20.60;99.90;;;;;;6037271;23;20010;-88
2021/07/05 05:34:27;;;;;;;20.20;17.63;;;20.60;99.90;;;;;;6037858;23;20323;-86
2021/07/05 05:36:52;;;;;;;20.48;17.45;;;20.80;99.90;;;;;;6036817;23;20086;-88
2021/07/05 05:39:18;;;;;;;19.30;15.70;;;20.90;99.90;;;;;;6036801;23;20015;-88
2021/07/05 05:41:44;;;;;;;20.40;16.55;;;20.90;99.90;;;;;;6036457;23;20006;-88
2021/07/05 05:44:09;;;;;;;18.55;16.08;;;20.90;99.90;;;;;;6037630;23;20058;-86
2021/07/05 05:46:35;;;;;;;20.42;16.65;;;21.10;99.90;;;;;;6037819;23;19999;-87
2021/07/05 05:49:02;;;;;;;16.67;14.88;;;21.10;99.90;;;;;;6037281;23;20024;-88
2021/07/05 05:51:33;;;;;;;15.77;14.02;;;21.20;99.90;;;;;;6036093;23;20011;-86
2021/07/05 05:54:00;;;;;;;16.58;14.52;;;21.40;99.90;;;;;;6037654;23;20071;-87
2021/07/05 05:56:27;;;;;;;16.48;14.70;;;21.50;99.90;;;;;;6037294;23;20475;-88
2021/07/05 05:58:55;;;;;;;15.43;13.68;;;21.90;99.90;;;;;;6037148;23;20015;-87
2021/07/05 06:01:21;;;;;;;14.70;13.13;;;22.00;99.90;;;;;;6037216;23;20424;-88
2021/07/05 06:03:47;;;;;;;17.10;11.82;;;22.10;99.90;;;;;;6036409;23;20090;-86
2021/07/05 06:06:12;;;;;;;13.48;12.10;;;22.20;99.90;;;;;;6037627;23;20011;-87
2021/07/05 06:08:38;;;;;;;15.75;12.63;;;22.20;99.90;;;;;;6038283;23;20003;-87
2021/07/05 06:11:04;;;;;;;13.75;12.48;;;22.30;99.90;;;;;;6037749;23;20000;-87
2021/07/05 06:13:29;;;;;;;13.00;11.48;;;22.20;99.90;;;;;;6036462;23;20007;-86
2021/07/05 06:15:55;;;;;;;13.32;12.02;;;22.20;99.90;;;;;;6037668;23;19999;-88
2021/07/05 06:18:21;;;;;;;14.48;12.38;;;22.10;99.90;;;;;;6038707;23;20012;-88
2021/07/05 06:20:46;;;;;;;12.80;11.60;;;22.20;99.90;;;;;;6013366;23;20003;-89
2021/07/05 06:23:28;;;;;;;14.65;12.98;;;22.30;99.90;;;;;;6038773;23;20432;-87
2021/07/05 06:25:59;;;;;;;14.35;12.88;;;22.30;99.90;;;;;;6037414;23;20007;-89
2021/07/05 06:28:28;;;;;;;14.63;12.10;;;22.40;99.90;;;;;;6038498;23;20004;-88
2021/07/05 06:30:54;;;;;;;14.18;12.77;;;22.40;99.90;;;;;;6038379;23;20003;-89
2021/07/05 06:33:20;;;;;;;14.52;13.02;;;22.40;99.90;;;;;;6013112;23;20007;-88
2021/07/05 06:35:48;;;;;;;13.02;11.73;;;22.40;99.90;;;;;;6038641;23;20030;-89
2021/07/05 06:38:15;;;;;;;13.50;12.20;;;22.50;99.90;;;;;;6038803;23;20019;-88
2021/07/05 06:40:42;;;;;;;12.25;10.95;;;22.60;99.90;;;;;;6037957;23;20003;-89
2021/07/05 06:43:08;;;;;;;12.88;11.68;;;22.60;99.90;;;;;;6038859;23;20038;-89
2021/07/05 06:45:34;;;;;;;12.02;10.82;;;22.70;99.90;;;;;;6038108;23;19999;-88
2021/07/05 06:48:00;;;;;;;11.43;10.27;;;22.90;99.90;;;;;;6038392;23;20056;-89
2021/07/05 06:50:26;;;;;;;11.88;10.73;;;23.00;99.90;;;;;;6038122;23;20030;-87
2021/07/05 06:52:53;;;;;;;11.65;10.50;;;23.10;99.90;;;;;;6038870;23;20452;-86
2021/07/05 06:55:19;;;;;;;13.30;11.77;;;23.10;99.90;;;;;;6038598;23;20076;-86
2021/07/05 06:57:45;;;;;;;11.45;10.35;;;23.20;99.90;;;;;;6038422;23;20007;-86
2021/07/05 07:00:14;;;;;;;13.02;11.82;;;23.30;99.90;;;;;;6038750;23;20014;-87
2021/07/05 07:02:41;;;;;;;12.57;11.27;;;23.20;99.90;;;;;;6013402;23;20458;-86
2021/07/05 07:05:12;;;;;;;11.60;10.32;;;23.10;99.90;;;;;;6037890;23;20244;-86
2021/07/05 07:07:39;;;;;;;12.65;11.50;;;23.00;99.90;;;;;;6037939;23;20007;-86
2021/07/05 07:10:07;;;;;;;12.82;11.73;;;22.90;99.90;;;;;;6038330;23;20039;-87
2021/07/05 07:12:36;;;;;;;12.23;10.93;;;22.90;99.90;;;;;;6038610;23;20007;-87
2021/07/05 07:15:07;;;;;;;11.82;10.63;;;23.00;99.90;;;;;;6038084;23;20114;-88
2021/07/05 07:20:04;;;;;;;11.23;10.07;;;23.10;99.90;;;;;;6040522;23;20094;-87
2021/07/05 07:22:29;;;;;;;11.25;10.00;;;23.00;99.90;;;;;;6032965;23;20455;-86
2021/07/05 07:24:55;;;;;;;11.77;10.57;;;23.00;99.90;;;;;;6011354;23;20083;-89
2021/07/05 07:27:21;;;;;;;12.18;10.90;;;23.10;99.90;;;;;;6037335;23;20010;-88
2021/07/05 07:29:46;;;;;;;11.63;10.43;;;23.10;99.90;;;;;;6036885;23;20006;-87
2021/07/05 07:32:12;;;;;;;11.43;10.32;;;23.00;99.90;;;;;;6037167;23;20007;-86
2021/07/05 07:34:39;;;;;;;11.20;10.00;;;23.10;99.90;;;;;;6036902;23;20007;-88
2021/07/05 07:37:06;;;;;;;18.45;10.30;;;23.10;99.90;;;;;;6037748;23;20003;-89
2021/07/05 07:39:37;;;;;;;11.63;10.48;;;23.10;99.90;;;;;;6036406;23;20441;-88
2021/07/05 07:42:03;;;;;;;11.77;10.50;;;23.10;99.90;;;;;;6037716;23;20003;-88
2021/07/05 07:44:29;;;;;;;11.40;10.30;;;23.20;99.90;;;;;;6037524;23;20040;-89
2021/07/05 07:46:55;;;;;;;12.40;11.13;;;23.30;99.90;;;;;;6036626;23;20027;-87
2021/07/05 07:49:21;;;;;;;11.13;10.02;;;23.40;99.90;;;;;;6037381;23;19999;-89
2021/07/05 07:51:47;;;;;;;11.60;10.35;;;23.50;99.90;;;;;;6037429;23;20351;-88
2021/07/05 07:54:12;;;;;;;10.63;9.57;;;23.70;99.90;;;;;;6037640;23;20429;-89
2021/07/05 07:56:38;;;;;;;12.50;11.07;;;23.90;99.90;;;;;;6031854;23;20003;-86
2021/07/05 07:59:04;;;;;;;10.50;9.55;;;24.10;99.90;;;;;;6011313;23;20134;-89
2021/07/05 08:01:30;;;;;;;11.52;9.75;;;24.40;99.90;;;;;;6036305;23;20024;-89
2021/07/05 08:03:56;;;;;;;11.18;9.40;;;24.70;99.90;;;;;;6035319;23;20003;-91
2021/07/05 08:06:22;;;;;;;11.20;10.07;;;24.80;99.90;;;;;;6036151;23;20007;-89
2021/07/05 08:08:51;;;;;;;14.60;10.10;;;24.70;99.90;;;;;;6036873;23;20078;-89
2021/07/05 08:11:18;;;;;;;11.27;10.18;;;24.40;99.90;;;;;;6010498;23;20007;-89
2021/07/05 08:13:43;;;;;;;11.10;9.90;;;24.40;99.90;;;;;;6036256;23;20007;-89
2021/07/05 08:16:09;;;;;;;10.02;9.13;;;24.20;99.90;;;;;;6010874;23;20018;-88
2021/07/05 08:18:35;;;;;;;10.43;9.32;;;24.20;99.90;;;;;;6035624;23;20051;-89
2021/07/05 08:21:01;;;;;;;10.57;8.77;;;24.10;99.90;;;;;;6035865;23;20003;-88
2021/07/05 08:23:26;;;;;;;9.35;8.45;;;24.00;99.90;;;;;;6035930;23;20345;-89
2021/07/05 08:25:52;;;;;;;10.30;8.50;;;24.00;99.90;;;;;;6010069;23;20436;-89
2021/07/05 08:28:18;;;;;;;12.75;9.93;;;24.00;99.90;;;;;;6010447;23;20008;-89
2021/07/05 08:30:44;;;;;;;10.80;9.25;;;24.10;99.90;;;;;;6035868;23;20011;-89
2021/07/05 08:33:10;;;;;;;9.43;8.45;;;24.20;99.90;;;;;;6010281;23;20011;-88
2021/07/05 08:35:36;;;;;;;10.23;9.23;;;24.30;99.90;;;;;;6034122;23;20059;-88
2021/07/05 08:38:02;;;;;;;10.30;8.85;;;24.50;99.90;;;;;;6035556;23;20020;-88
2021/07/05 08:40:28;;;;;;;9.68;8.68;;;24.70;99.90;;;;;;6036007;23;20714;-89
2021/07/05 08:42:56;;;;;;;9.70;8.90;;;25.00;99.90;;;;;;6034451;23;20007;-89
2021/07/05 08:45:22;;;;;;;10.25;9.25;;;25.10;99.90;;;;;;6035417;23;20314;-88
2021/07/05 08:47:50;;;;;;;10.75;9.40;;;25.20;99.90;;;;;;6011233;23;20395;-88
2021/07/05 08:50:17;;;;;;;9.52;8.63;;;25.20;99.90;;;;;;6033584;23;20007;-90
2021/07/05 08:52:45;;;;;;;10.38;9.38;;;25.20;99.90;;;;;;6034864;23;20086;-88
2021/07/05 08:55:19;;;;;;;9.70;8.80;;;25.10;99.90;;;;;;6009020;23;20007;-90
2021/07/05 08:57:46;;;;;;;8.40;7.70;;;25.10;99.90;;;;;;6034879;23;20411;-88
2021/07/05 09:00:23;;;;;;;9.65;8.73;;;25.10;99.90;;;;;;6034799;23;20010;-89
2021/07/05 09:02:50;;;;;;;10.70;9.38;;;25.10;99.90;;;;;;6009943;23;20309;-88
2021/07/05 09:05:17;;;;;;;9.18;8.32;;;25.10;99.90;;;;;;6009093;23;20011;-89
2021/07/05 09:08:06;;;;;;;9.95;9.00;;;25.30;99.90;;;;;;6035906;23;20067;-89
2021/07/05 09:10:44;;;;;;;9.25;7.55;;;25.30;99.90;;;;;;6035507;23;20008;-88
2021/07/05 09:13:21;;;;;;;9.43;8.52;;;25.50;99.90;;;;;;6034634;23;20472;-88
2021/07/05 09:15:55;;;;;;;9.18;8.38;;;25.50;99.90;;;;;;6034478;23;20007;-89
2021/07/05 09:18:44;;;;;;;9.35;8.40;;;25.50;99.90;;;;;;6035146;23;20041;-89
2021/07/05 09:21:27;;;;;;;10.10;8.75;;;25.40;99.90;;;;;;6035470;23;20340;-88
2021/07/05 09:24:07;;;;;;;9.32;8.43;;;25.30;99.90;;;;;;6035223;23;20014;-88
2021/07/05 09:26:39;;;;;;;9.60;8.70;;;25.30;99.90;;;;;;6009886;23;20003;-89
2021/07/05 09:29:21;;;;;;;9.40;8.50;;;25.30;99.90;;;;;;6035987;23;20011;-90
2021/07/05 09:31:54;;;;;;;10.23;9.30;;;25.30;99.90;;;;;;6034657;23;20010;-88
2021/07/05 09:34:27;;;;;;;8.93;8.02;;;25.40;99.90;;;;;;6033971;23;20015;-90
2021/07/05 09:37:10;;;;;;;10.18;8.20;;;25.50;99.90;;;;;;6035383;23;20043;-89
2021/07/05 09:39:36;;;;;;;10.32;9.32;;;25.50;99.90;;;;;;6035228;23;20018;-91
2021/07/05 09:42:07;;;;;;;10.70;9.70;;;25.40;99.90;;;;;;6035591;23;20340;-87
2021/07/05 09:44:44;;;;;;;9.93;8.43;;;25.40;99.90;;;;;;6037119;23;20456;-90
2021/07/05 09:47:17;;;;;;;8.48;7.72;;;25.40;99.90;;;;;;6035516;23;20087;-89
2021/07/05 09:49:44;;;;;;;9.50;8.60;;;25.10;99.90;;;;;;6037194;23;20467;-89
2021/07/05 09:52:16;;;;;;;9.82;8.57;;;25.00;99.90;;;;;;6037835;23;20003;-88
2021/07/05 09:54:45;;;;;;;12.95;8.75;;;24.90;99.90;;;;;;6036077;23;20332;-89
2021/07/05 09:57:34;;;;;;;10.40;9.45;;;24.80;99.90;;;;;;6036196;23;20043;-89
2021/07/05 10:00:06;;;;;;;9.90;9.10;;;24.80;99.90;;;;;;6036456;23;20039;-89
2021/07/05 10:02:33;;;;;;;9.77;8.77;;;24.90;99.90;;;;;;6037479;23;20068;-88
2021/07/05 10:05:12;;;;;;;8.70;8.00;;;25.00;99.90;;;;;;6035834;23;20003;-88
2021/07/05 10:07:39;;;;;;;9.18;8.27;;;25.00;99.90;;;;;;6036728;23;20684;-89
2021/07/05 10:10:12;;;;;;;10.13;9.13;;;25.10;99.90;;;;;;6037193;23;20003;-87
2021/07/05 10:12:37;;;;;;;10.05;9.15;;;25.00;99.90;;;;;;6036051;23;20011;-87
2021/07/05 10:15:10;;;;;;;9.65;8.15;;;25.00;99.90;;;;;;6035904;23;20077;-88
2021/07/05 10:17:46;;;;;;;10.20;8.93;;;25.00;99.90;;;;;;6036144;23;20434;-88
2021/07/05 10:20:36;;;;;;;9.95;9.05;;;25.10;99.90;;;;;;6036164;23;20488;-89
2021/07/05 10:23:06;;;;;;;9.43;8.57;;;25.20;99.90;;;;;;6035584;23;20010;-87
2021/07/05 10:25:34;;;;;;;11.07;9.43;;;25.10;99.90;;;;;;6035444;23;20007;-88
2021/07/05 10:28:01;;;;;;;9.23;8.38;;;25.20;99.90;;;;;;6010700;23;20407;-88
2021/07/05 10:30:27;;;;;;;9.02;8.13;;;25.20;99.90;;;;;;6036210;23;20007;-87
2021/07/05 10:32:54;;;;;;;9.32;8.52;;;25.10;99.90;;;;;;6035847;23;20067;-88
2021/07/05 10:35:43;;;;;;;11.95;8.70;;;25.10;99.90;;;;;;6037006;23;20020;-90
2021/07/05 10:38:14;;;;;;;9.27;8.48;;;25.10;99.90;;;;;;6036113;23;20021;-89
2021/07/05 10:40:52;;;;;;;11.88;8.68;;;25.20;99.90;;;;;;6010895;23;20030;-88
2021/07/05 10:43:20;;;;;;;9.80;8.43;;;25.20;99.90;;;;;;6011022;23;20034;-89
2021/07/05 10:46:32;;;;;;;8.95;8.23;;;25.30;99.90;;;;;;6036501;23;20015;-90
2021/07/05 10:48:58;;;;;;;9.35;8.40;;;25.30;99.90;;;;;;6010580;23;20007;-89
2021/07/05 10:51:23;;;;;;;9.38;8.38;;;25.20;99.90;;;;;;6035939;23;20079;-88
2021/07/05 10:53:50;;;;;;;10.40;8.63;;;25.30;99.90;;;;;;6035441;23;20011;-87
2021/07/05 10:56:29;;;;;;;8.73;7.93;;;25.20;99.90;;;;;;6035551;23;20007;-88
2021/07/05 10:59:11;;;;;;;8.02;7.32;;;25.20;99.90;;;;;;6036012;23;20022;-88
2021/07/05 11:01:39;;;;;;;9.02;8.13;;;25.30;99.90;;;;;;6009751;23;20010;-86
2021/07/05 11:04:20;;;;;;;8.80;8.02;;;25.30;99.90;;;;;;6036883;23;20007;-89
2021/07/05 11:06:47;;;;;;;10.52;7.53;;;25.30;99.90;;;;;;6036182;23;20063;-88
2021/07/05 11:09:18;;;;;;;8.85;8.05;;;25.40;99.90;;;;;;6035311;23;20011;-87
2021/07/05 11:11:52;;;;;;;9.68;8.07;;;25.40;99.90;;;;;;6035575;23;20010;-87
2021/07/05 11:14:35;;;;;;;9.40;7.38;;;25.60;99.90;;;;;;6035886;23;20039;-89
2021/07/05 11:17:05;;;;;;;9.35;7.25;;;25.70;99.90;;;;;;6036480;23;20010;-86
2021/07/05 11:19:30;;;;;;;8.40;6.95;;;25.60;99.90;;;;;;6034049;23;20011;-88
2021/07/05 11:21:58;;;;;;;7.80;6.80;;;25.60;99.90;;;;;;6036741;23;20063;-89
2021/07/05 11:24:39;;;;;;;7.82;7.03;;;25.60;99.90;;;;;;6036403;23;20010;-88
2021/07/05 11:27:40;;;;;;;7.35;6.60;;;25.60;99.90;;;;;;6033725;23;20014;-86
2021/07/05 11:30:25;;;;;;;7.43;6.75;;;25.60;99.90;;;;;;5920636;24;20038;-89
2021/07/05 11:32:59;;;;;;;8.35;7.55;;;25.60;99.90;;;;;;5920949;24;20009;-89
2021/07/05 11:35:36;;;;;;;6.63;6.03;;;25.60;99.90;;;;;;5898270;24;20041;-87
2021/07/05 11:38:02;;;;;;;8.60;7.82;;;25.70;99.90;;;;;;5921256;24;20107;-87
2021/07/05 11:40:44;;;;;;;8.80;7.93;;;25.70;99.90;;;;;;5918881;24;20013;-86
2021/07/05 11:43:10;;;;;;;9.48;7.65;;;25.80;99.90;;;;;;5921429;24;20145;-87
2021/07/05 11:45:48;;;;;;;8.77;8.05;;;25.90;99.90;;;;;;5898181;24;20013;-89
2021/07/05 11:48:38;;;;;;;9.27;8.48;;;26.00;99.90;;;;;;5921323;24;20033;-88
2021/07/05 11:51:14;;;;;;;11.10;7.68;;;26.10;99.90;;;;;;5921614;24;20009;-89
2021/07/05 11:53:40;;;;;;;8.48;7.68;;;26.20;99.90;;;;;;5897676;24;20033;-89
2021/07/05 11:56:05;;;;;;;6.97;6.43;;;26.30;99.90;;;;;;5921620;24;20009;-89
2021/07/05 11:58:32;;;;;;;8.85;6.95;;;26.50;99.90;;;;;;5921371;24;20077;-88
2021/07/05 12:01:11;;;;;;;7.82;7.03;;;26.50;99.90;;;;;;5919640;24;20009;-88
2021/07/05 12:03:49;;;;;;;7.10;6.50;;;26.70;99.90;;;;;;5955768;23;20036;-89
2021/07/05 12:06:15;;;;;;;6.97;5.88;;;26.80;99.90;;;;;;6035012;23;20007;-88
2021/07/05 12:08:41;;;;;;;7.95;6.47;;;26.90;99.90;;;;;;6035674;23;20014;-88
2021/07/05 12:11:06;;;;;;;7.25;5.82;;;26.90;99.90;;;;;;6008170;23;20094;-87
2021/07/05 12:13:32;;;;;;;7.40;6.70;;;27.00;99.90;;;;;;6035307;23;20323;-89
2021/07/05 12:16:03;;;;;;;7.40;6.30;;;27.00;99.90;;;;;;6036025;23;20018;-88
2021/07/05 12:18:29;;;;;;;9.20;5.95;;;27.00;99.90;;;;;;6010306;23;20444;-87
2021/07/05 12:21:02;;;;;;;6.93;6.32;;;27.00;99.90;;;;;;6035035;23;20436;-89
2021/07/05 12:23:39;;;;;;;7.25;6.10;;;27.10;99.90;;;;;;6035965;23;20018;-88
2021/07/05 12:26:16;;;;;;;7.97;5.85;;;27.20;99.90;;;;;;6035860;23;20003;-87
2021/07/05 12:29:01;;;;;;;7.70;6.43;;;27.30;99.90;;;;;;6035075;23;20448;-89
2021/07/05 12:31:26;;;;;;;7.30;6.40;;;27.30;99.90;;;;;;6035393;23;20009;-88
2021/07/05 12:33:52;;;;;;;5.68;5.15;;;27.40;99.90;;;;;;6035143;23;20011;-89
2021/07/05 12:36:19;;;;;;;6.05;5.53;;;27.50;99.90;;;;;;6035409;23;20007;-87
2021/07/05 12:39:18;;;;;;;8.90;6.70;;;27.50;99.90;;;;;;6035396;23;20019;-89
2021/07/05 12:41:44;;;;;;;7.35;6.65;;;27.40;99.90;;;;;;5920482;24;20375;-88
2021/07/05 12:44:11;;;;;;;6.95;6.20;;;27.60;99.90;;;;;;5920838;24;20036;-86